Warren, PA

5:01 PM EST on February 01, 2015 (GMT -0500)
RAWS KINZUA PA US | Change Station
CLOSE
Current Station
Personal Weather Station
Location: Russell, PA
Elevation: 1408 ft
Nearby Weather Stations
Active Advisory: Winter Storm Warning

Elev 1408 ft 41.90 °N, 79.12 °W | Updated 54 minutes ago

Snow
Snow
29 °F
Feels Like 29 °F
N
3
Wind Variable Wind from SSE
Gusts 7.0 mph

Today
High -- | Low -- °F
--% Chance of Precip.
Yesterday
High -- | Low -- °F
Precip. -- in
7:29 AM 5:31 PM
Waxing Gibbous, 96% visible
Pressure 29.90 in
Visibility 0.8 miles
Clouds Overcast 400 ft
Windchill 29 °F
Dew Point 25 °F
Humidity 85%
Rainfall 0.00 in
Snow Depth Not available.
UV 0 out of 12
Pollen .10 out of 12
Air Quality Not available.
Flu Activity Not available.
METAR KJHW 012135Z 07007KT 3/4SM OVC004 M03/M04 A2990 RMK AO1 P0001

More Conditions Fewer Conditions

Pressure 29.90 in
Visibility 0.8 miles
Clouds Overcast 400 ft
Windchill 29 °F
Dew Point 25 °F
Humidity 85%
Rainfall 0.00 in
Snow Depth Not available.
UV 0 out of 12
Pollen .10 out of 12
Air Quality Not available.
Flu Activity Not available.
METAR KJHW 012135Z 07007KT 3/4SM OVC004 M03/M04 A2990 RMK AO1 P0001

More Conditions Fewer Conditions

Nowcast | as of 3:51 PM EST on February 1, 2015

Bands of snow will become heavier across much of the area into the early evening hours. The snow may come down at a rate of an inch per hours. With temperatures near or just below freezing...travel conditions will likely become poor after sunset. Persons traveling this evening should allow plenty of extra travel time and slow down.

×

10-Day Weather Forecast

Almanac

Astronomy

Feb. 01, 2015 Rise Set
Actual Time
Civil Twilight
Nautical Twilight
Astronomical Twilight
Moon
Length of Visible Light
Length of Day
Tomorrow will be .
, % of the Moon is Illuminated

Today's Extremes

State Highs State Lows

Community

WunderPhotos

Upload Photos

1,792,561 photos uploaded!

WunderBlogs® & News

Nearby

Air Quality

  Air Quality AQ Index Pollutant
Not available.

Snow Depth

Station Depth Elevation

Earthquake Activity

City Distance Mag. Time & Date
Minimum magnitude displayed is 2.5.

Coastal Water Temperatures

Place Temperature

Nearby Weather Stations